sensor_id;sensor_type;location;lat;lon;timestamp;P1;durP1;ratioP1;P2;durP2;ratioP2
3052;SDS011;1536;51.098;6.414;2023-07-24T00:01:07;4.77;;;2.83;;
3052;SDS011;1536;51.098;6.414;2023-07-24T00:03:34;3.40;;;2.83;;
3052;SDS011;1536;51.098;6.414;2023-07-24T00:06:01;4.40;;;3.80;;
3052;SDS011;1536;51.098;6.414;2023-07-24T00:08:29;4.13;;;2.90;;
3052;SDS011;1536;51.098;6.414;2023-07-24T00:10:56;4.80;;;2.80;;
3052;SDS011;1536;51.098;6.414;2023-07-24T00:13:23;4.57;;;3.40;;
3052;SDS011;1536;51.098;6.414;2023-07-24T00:15:50;5.03;;;3.60;;
3052;SDS011;1536;51.098;6.414;2023-07-24T00:18:17;3.77;;;2.77;;
3052;SDS011;1536;51.098;6.414;2023-07-24T00:20:43;4.23;;;3.50;;
3052;SDS011;1536;51.098;6.414;2023-07-24T00:23:10;3.73;;;3.07;;
3052;SDS011;1536;51.098;6.414;2023-07-24T00:25:38;5.23;;;3.30;;
3052;SDS011;1536;51.098;6.414;2023-07-24T00:28:05;3.90;;;3.50;;
3052;SDS011;1536;51.098;6.414;2023-07-24T00:30:31;4.40;;;3.53;;
3052;SDS011;1536;51.098;6.414;2023-07-24T00:32:58;3.70;;;3.10;;
3052;SDS011;1536;51.098;6.414;2023-07-24T00:35:25;5.87;;;3.40;;
3052;SDS011;1536;51.098;6.414;2023-07-24T00:37:52;3.50;;;3.03;;
3052;SDS011;1536;51.098;6.414;2023-07-24T00:40:19;3.50;;;3.20;;
3052;SDS011;1536;51.098;6.414;2023-07-24T00:42:48;6.57;;;3.40;;
3052;SDS011;1536;51.098;6.414;2023-07-24T00:45:14;3.17;;;2.87;;
3052;SDS011;1536;51.098;6.414;2023-07-24T00:47:42;3.80;;;3.40;;
3052;SDS011;1536;51.098;6.414;2023-07-24T00:50:09;6.10;;;3.87;;
3052;SDS011;1536;51.098;6.414;2023-07-24T00:52:38;5.73;;;3.33;;
3052;SDS011;1536;51.098;6.414;2023-07-24T00:55:06;4.93;;;3.27;;
3052;SDS011;1536;51.098;6.414;2023-07-24T00:57:34;4.60;;;3.30;;
3052;SDS011;1536;51.098;6.414;2023-07-24T01:00:03;5.37;;;3.13;;
3052;SDS011;1536;51.098;6.414;2023-07-24T01:02:31;6.00;;;3.67;;
3052;SDS011;1536;51.098;6.414;2023-07-24T01:04:58;4.77;;;3.23;;
3052;SDS011;1536;51.098;6.414;2023-07-24T01:07:25;3.87;;;3.20;;
3052;SDS011;1536;51.098;6.414;2023-07-24T01:09:52;4.70;;;3.20;;
3052;SDS011;1536;51.098;6.414;2023-07-24T01:12:19;8.00;;;3.73;;
3052;SDS011;1536;51.098;6.414;2023-07-24T01:14:57;6.00;;;3.60;;
3052;SDS011;1536;51.098;6.414;2023-07-24T01:17:31;3.93;;;3.57;;
3052;SDS011;1536;51.098;6.414;2023-07-24T01:19:59;4.87;;;3.90;;
3052;SDS011;1536;51.098;6.414;2023-07-24T01:22:32;3.97;;;3.57;;
3052;SDS011;1536;51.098;6.414;2023-07-24T01:25:06;4.27;;;3.43;;
3052;SDS011;1536;51.098;6.414;2023-07-24T01:27:41;4.30;;;3.47;;
3052;SDS011;1536;51.098;6.414;2023-07-24T01:30:08;7.33;;;4.30;;
3052;SDS011;1536;51.098;6.414;2023-07-24T01:32:36;4.80;;;4.20;;
3052;SDS011;1536;51.098;6.414;2023-07-24T01:35:03;9.83;;;3.97;;
3052;SDS011;1536;51.098;6.414;2023-07-24T01:37:30;4.40;;;3.17;;
3052;SDS011;1536;51.098;6.414;2023-07-24T01:40:00;6.03;;;3.90;;
3052;SDS011;1536;51.098;6.414;2023-07-24T01:42:28;5.00;;;3.80;;
3052;SDS011;1536;51.098;6.414;2023-07-24T01:44:56;4.93;;;3.80;;
3052;SDS011;1536;51.098;6.414;2023-07-24T01:47:23;5.67;;;3.67;;
3052;SDS011;1536;51.098;6.414;2023-07-24T01:49:50;5.63;;;3.83;;
3052;SDS011;1536;51.098;6.414;2023-07-24T01:52:17;8.23;;;3.57;;
3052;SDS011;1536;51.098;6.414;2023-07-24T01:54:44;6.63;;;4.80;;
3052;SDS011;1536;51.098;6.414;2023-07-24T01:57:11;5.70;;;3.60;;
3052;SDS011;1536;51.098;6.414;2023-07-24T01:59:37;7.07;;;4.40;;
3052;SDS011;1536;51.098;6.414;2023-07-24T02:02:07;7.67;;;4.70;;
3052;SDS011;1536;51.098;6.414;2023-07-24T02:04:34;4.77;;;3.90;;
3052;SDS011;1536;51.098;6.414;2023-07-24T02:07:01;7.90;;;3.93;;
3052;SDS011;1536;51.098;6.414;2023-07-24T02:09:27;5.30;;;3.77;;
3052;SDS011;1536;51.098;6.414;2023-07-24T02:11:54;8.10;;;3.87;;
3052;SDS011;1536;51.098;6.414;2023-07-24T02:14:21;6.73;;;4.60;;
3052;SDS011;1536;51.098;6.414;2023-07-24T02:16:49;8.80;;;4.70;;
3052;SDS011;1536;51.098;6.414;2023-07-24T02:19:17;6.30;;;4.20;;
3052;SDS011;1536;51.098;6.414;2023-07-24T02:21:44;5.60;;;4.00;;
3052;SDS011;1536;51.098;6.414;2023-07-24T02:24:10;6.90;;;4.20;;
3052;SDS011;1536;51.098;6.414;2023-07-24T02:26:37;6.47;;;4.73;;
3052;SDS011;1536;51.098;6.414;2023-07-24T02:29:05;6.00;;;3.67;;
3052;SDS011;1536;51.098;6.414;2023-07-24T02:31:32;6.77;;;4.20;;
3052;SDS011;1536;51.098;6.414;2023-07-24T02:33:59;5.50;;;4.73;;
3052;SDS011;1536;51.098;6.414;2023-07-24T02:36:28;9.77;;;4.27;;
3052;SDS011;1536;51.098;6.414;2023-07-24T02:38:54;10.53;;;4.27;;
3052;SDS011;1536;51.098;6.414;2023-07-24T02:41:21;8.50;;;4.00;;
3052;SDS011;1536;51.098;6.414;2023-07-24T02:43:49;10.17;;;5.70;;
3052;SDS011;1536;51.098;6.414;2023-07-24T02:46:16;7.40;;;4.63;;
3052;SDS011;1536;51.098;6.414;2023-07-24T02:48:42;5.67;;;4.20;;
3052;SDS011;1536;51.098;6.414;2023-07-24T02:51:11;11.40;;;4.50;;
3052;SDS011;1536;51.098;6.414;2023-07-24T02:53:39;8.00;;;3.90;;
3052;SDS011;1536;51.098;6.414;2023-07-24T02:56:06;8.13;;;4.67;;
3052;SDS011;1536;51.098;6.414;2023-07-24T02:58:33;8.60;;;4.60;;
3052;SDS011;1536;51.098;6.414;2023-07-24T03:01:03;5.97;;;4.03;;
3052;SDS011;1536;51.098;6.414;2023-07-24T03:03:31;7.67;;;4.50;;
3052;SDS011;1536;51.098;6.414;2023-07-24T03:05:58;5.33;;;4.17;;
3052;SDS011;1536;51.098;6.414;2023-07-24T03:08:26;6.67;;;4.87;;
3052;SDS011;1536;51.098;6.414;2023-07-24T03:10:54;6.33;;;4.03;;
3052;SDS011;1536;51.098;6.414;2023-07-24T03:13:20;6.73;;;4.33;;
3052;SDS011;1536;51.098;6.414;2023-07-24T03:15:51;6.10;;;4.90;;
3052;SDS011;1536;51.098;6.414;2023-07-24T03:18:19;9.20;;;5.13;;
3052;SDS011;1536;51.098;6.414;2023-07-24T03:20:45;6.60;;;4.90;;
3052;SDS011;1536;51.098;6.414;2023-07-24T03:23:12;6.67;;;4.73;;
3052;SDS011;1536;51.098;6.414;2023-07-24T03:25:39;10.90;;;4.27;;
3052;SDS011;1536;51.098;6.414;2023-07-24T03:28:07;5.40;;;4.03;;
3052;SDS011;1536;51.098;6.414;2023-07-24T03:30:34;10.47;;;5.37;;
3052;SDS011;1536;51.098;6.414;2023-07-24T03:33:01;5.50;;;4.20;;
3052;SDS011;1536;51.098;6.414;2023-07-24T03:35:28;8.00;;;4.93;;
3052;SDS011;1536;51.098;6.414;2023-07-24T03:37:55;8.53;;;4.87;;
3052;SDS011;1536;51.098;6.414;2023-07-24T03:40:22;5.50;;;4.73;;
3052;SDS011;1536;51.098;6.414;2023-07-24T03:42:48;5.80;;;4.77;;
3052;SDS011;1536;51.098;6.414;2023-07-24T03:45:17;20.10;;;5.27;;
3052;SDS011;1536;51.098;6.414;2023-07-24T03:47:43;6.57;;;4.70;;
3052;SDS011;1536;51.098;6.414;2023-07-24T03:50:10;6.90;;;4.57;;
3052;SDS011;1536;51.098;6.414;2023-07-24T03:52:37;5.70;;;4.20;;
3052;SDS011;1536;51.098;6.414;2023-07-24T03:55:04;6.97;;;5.27;;
3052;SDS011;1536;51.098;6.414;2023-07-24T03:57:32;8.20;;;4.93;;
3052;SDS011;1536;51.098;6.414;2023-07-24T03:59:59;10.03;;;5.13;;
3052;SDS011;1536;51.098;6.414;2023-07-24T04:02:27;10.00;;;5.00;;
3052;SDS011;1536;51.098;6.414;2023-07-24T04:04:54;8.97;;;4.57;;
3052;SDS011;1536;51.098;6.414;2023-07-24T04:07:21;12.30;;;4.70;;
3052;SDS011;1536;51.098;6.414;2023-07-24T04:09:47;8.00;;;4.60;;
3052;SDS011;1536;51.098;6.414;2023-07-24T04:12:14;8.93;;;5.10;;
3052;SDS011;1536;51.098;6.414;2023-07-24T04:14:41;8.70;;;5.07;;
3052;SDS011;1536;51.098;6.414;2023-07-24T04:17:08;5.73;;;4.77;;
3052;SDS011;1536;51.098;6.414;2023-07-24T04:19:36;6.80;;;4.23;;
3052;SDS011;1536;51.098;6.414;2023-07-24T04:22:03;7.57;;;5.17;;
3052;SDS011;1536;51.098;6.414;2023-07-24T04:24:29;5.50;;;4.20;;
3052;SDS011;1536;51.098;6.414;2023-07-24T04:26:56;5.90;;;4.30;;
3052;SDS011;1536;51.098;6.414;2023-07-24T04:29:23;6.73;;;4.93;;
3052;SDS011;1536;51.098;6.414;2023-07-24T04:31:51;5.67;;;4.63;;
3052;SDS011;1536;51.098;6.414;2023-07-24T04:34:17;9.07;;;5.30;;
3052;SDS011;1536;51.098;6.414;2023-07-24T04:36:46;6.90;;;4.13;;
3052;SDS011;1536;51.098;6.414;2023-07-24T04:39:13;7.00;;;4.30;;
3052;SDS011;1536;51.098;6.414;2023-07-24T04:41:39;7.90;;;4.70;;
3052;SDS011;1536;51.098;6.414;2023-07-24T04:44:06;5.47;;;4.50;;
3052;SDS011;1536;51.098;6.414;2023-07-24T04:46:33;5.17;;;4.60;;
3052;SDS011;1536;51.098;6.414;2023-07-24T04:48:59;6.83;;;4.50;;
3052;SDS011;1536;51.098;6.414;2023-07-24T04:51:26;8.67;;;4.93;;
3052;SDS011;1536;51.098;6.414;2023-07-24T04:53:54;5.43;;;4.30;;
3052;SDS011;1536;51.098;6.414;2023-07-24T04:56:21;5.97;;;4.73;;
3052;SDS011;1536;51.098;6.414;2023-07-24T04:58:49;7.47;;;5.00;;
3052;SDS011;1536;51.098;6.414;2023-07-24T05:01:16;8.53;;;4.20;;
3052;SDS011;1536;51.098;6.414;2023-07-24T05:03:43;5.97;;;4.63;;
3052;SDS011;1536;51.098;6.414;2023-07-24T05:06:09;7.00;;;5.37;;
3052;SDS011;1536;51.098;6.414;2023-07-24T05:08:36;8.87;;;5.33;;
3052;SDS011;1536;51.098;6.414;2023-07-24T05:11:04;8.30;;;5.00;;
3052;SDS011;1536;51.098;6.414;2023-07-24T05:13:31;6.40;;;4.87;;
3052;SDS011;1536;51.098;6.414;2023-07-24T05:15:58;10.23;;;4.83;;
3052;SDS011;1536;51.098;6.414;2023-07-24T05:18:24;8.00;;;4.00;;
3052;SDS011;1536;51.098;6.414;2023-07-24T05:20:51;9.50;;;4.73;;
3052;SDS011;1536;51.098;6.414;2023-07-24T05:23:18;5.73;;;4.83;;
3052;SDS011;1536;51.098;6.414;2023-07-24T05:25:45;5.57;;;4.80;;
3052;SDS011;1536;51.098;6.414;2023-07-24T05:28:13;6.07;;;4.77;;
3052;SDS011;1536;51.098;6.414;2023-07-24T05:30:40;9.83;;;5.50;;
3052;SDS011;1536;51.098;6.414;2023-07-24T05:33:07;5.47;;;4.73;;
3052;SDS011;1536;51.098;6.414;2023-07-24T05:35:33;7.90;;;4.80;;
3052;SDS011;1536;51.098;6.414;2023-07-24T05:38:00;7.80;;;5.20;;
3052;SDS011;1536;51.098;6.414;2023-07-24T05:40:27;7.60;;;4.87;;
3052;SDS011;1536;51.098;6.414;2023-07-24T05:42:54;6.97;;;4.63;;
3052;SDS011;1536;51.098;6.414;2023-07-24T05:45:23;7.53;;;4.80;;
3052;SDS011;1536;51.098;6.414;2023-07-24T05:47:49;8.40;;;5.03;;
3052;SDS011;1536;51.098;6.414;2023-07-24T05:50:16;7.10;;;3.90;;
3052;SDS011;1536;51.098;6.414;2023-07-24T05:52:43;6.33;;;4.13;;
3052;SDS011;1536;51.098;6.414;2023-07-24T05:55:10;8.00;;;5.00;;
3052;SDS011;1536;51.098;6.414;2023-07-24T05:57:37;6.07;;;4.50;;
3052;SDS011;1536;51.098;6.414;2023-07-24T06:00:04;6.87;;;4.10;;
3052;SDS011;1536;51.098;6.414;2023-07-24T06:02:33;7.10;;;4.27;;
3052;SDS011;1536;51.098;6.414;2023-07-24T06:05:00;8.43;;;3.93;;
3052;SDS011;1536;51.098;6.414;2023-07-24T06:07:26;4.70;;;4.10;;
3052;SDS011;1536;51.098;6.414;2023-07-24T06:09:53;6.30;;;4.43;;
3052;SDS011;1536;51.098;6.414;2023-07-24T06:12:20;6.37;;;3.20;;
3052;SDS011;1536;51.098;6.414;2023-07-24T06:14:46;8.77;;;4.00;;
3052;SDS011;1536;51.098;6.414;2023-07-24T06:17:13;6.30;;;3.50;;
3052;SDS011;1536;51.098;6.414;2023-07-24T06:19:41;5.67;;;3.50;;
3052;SDS011;1536;51.098;6.414;2023-07-24T06:22:08;3.93;;;3.13;;
3052;SDS011;1536;51.098;6.414;2023-07-24T06:24:35;6.93;;;3.40;;
3052;SDS011;1536;51.098;6.414;2023-07-24T06:27:01;4.90;;;3.17;;
3052;SDS011;1536;51.098;6.414;2023-07-24T06:29:28;5.60;;;3.90;;
3052;SDS011;1536;51.098;6.414;2023-07-24T06:31:55;4.47;;;3.60;;
3052;SDS011;1536;51.098;6.414;2023-07-24T06:34:22;5.93;;;3.43;;
3052;SDS011;1536;51.098;6.414;2023-07-24T06:36:50;3.50;;;3.20;;
3052;SDS011;1536;51.098;6.414;2023-07-24T06:39:16;5.17;;;3.37;;
3052;SDS011;1536;51.098;6.414;2023-07-24T06:41:44;5.83;;;3.10;;
3052;SDS011;1536;51.098;6.414;2023-07-24T06:44:10;7.40;;;3.57;;
3052;SDS011;1536;51.098;6.414;2023-07-24T06:46:37;3.50;;;2.73;;
3052;SDS011;1536;51.098;6.414;2023-07-24T06:49:04;3.70;;;3.17;;
3052;SDS011;1536;51.098;6.414;2023-07-24T06:51:31;6.97;;;3.07;;
3052;SDS011;1536;51.098;6.414;2023-07-24T06:53:59;5.27;;;3.10;;
3052;SDS011;1536;51.098;6.414;2023-07-24T06:56:25;5.10;;;3.70;;
3052;SDS011;1536;51.098;6.414;2023-07-24T06:58:52;6.43;;;3.40;;
3052;SDS011;1536;51.098;6.414;2023-07-24T07:01:19;4.03;;;3.50;;
3052;SDS011;1536;51.098;6.414;2023-07-24T07:03:46;3.87;;;3.37;;
3052;SDS011;1536;51.098;6.414;2023-07-24T07:06:13;3.60;;;2.87;;
3052;SDS011;1536;51.098;6.414;2023-07-24T07:08:39;7.70;;;3.63;;
3052;SDS011;1536;51.098;6.414;2023-07-24T07:11:07;4.00;;;3.53;;
3052;SDS011;1536;51.098;6.414;2023-07-24T07:13:34;3.80;;;2.90;;
3052;SDS011;1536;51.098;6.414;2023-07-24T07:16:01;4.80;;;3.13;;
3052;SDS011;1536;51.098;6.414;2023-07-24T07:18:28;4.33;;;3.20;;
3052;SDS011;1536;51.098;6.414;2023-07-24T07:20:54;3.47;;;3.17;;
3052;SDS011;1536;51.098;6.414;2023-07-24T07:23:23;3.77;;;3.43;;
3052;SDS011;1536;51.098;6.414;2023-07-24T07:25:50;4.47;;;3.03;;
3052;SDS011;1536;51.098;6.414;2023-07-24T07:28:18;5.30;;;3.60;;
3052;SDS011;1536;51.098;6.414;2023-07-24T07:30:45;4.37;;;2.90;;
3052;SDS011;1536;51.098;6.414;2023-07-24T07:33:12;5.47;;;3.13;;
3052;SDS011;1536;51.098;6.414;2023-07-24T07:35:38;10.40;;;5.67;;
3052;SDS011;1536;51.098;6.414;2023-07-24T07:38:05;5.30;;;3.60;;
3052;SDS011;1536;51.098;6.414;2023-07-24T07:40:32;3.93;;;3.20;;
3052;SDS011;1536;51.098;6.414;2023-07-24T07:42:59;3.33;;;2.80;;
3052;SDS011;1536;51.098;6.414;2023-07-24T07:45:27;5.13;;;3.23;;
3052;SDS011;1536;51.098;6.414;2023-07-24T07:47:54;8.23;;;3.63;;
3052;SDS011;1536;51.098;6.414;2023-07-24T07:50:20;7.93;;;3.87;;
3052;SDS011;1536;51.098;6.414;2023-07-24T07:52:49;5.07;;;3.30;;
3052;SDS011;1536;51.098;6.414;2023-07-24T07:55:16;3.70;;;3.03;;
3052;SDS011;1536;51.098;6.414;2023-07-24T07:57:43;4.13;;;3.30;;
3052;SDS011;1536;51.098;6.414;2023-07-24T08:00:11;6.67;;;4.00;;
3052;SDS011;1536;51.098;6.414;2023-07-24T08:02:39;5.00;;;3.43;;
3052;SDS011;1536;51.098;6.414;2023-07-24T08:05:06;9.90;;;4.10;;
3052;SDS011;1536;51.098;6.414;2023-07-24T08:07:33;4.53;;;3.17;;
3052;SDS011;1536;51.098;6.414;2023-07-24T08:10:00;4.17;;;3.13;;
3052;SDS011;1536;51.098;6.414;2023-07-24T08:12:27;6.00;;;2.83;;
3052;SDS011;1536;51.098;6.414;2023-07-24T08:14:55;4.87;;;2.93;;
3052;SDS011;1536;51.098;6.414;2023-07-24T08:17:22;4.00;;;2.83;;
3052;SDS011;1536;51.098;6.414;2023-07-24T08:19:50;3.27;;;2.97;;
3052;SDS011;1536;51.098;6.414;2023-07-24T08:22:17;3.90;;;2.90;;
3052;SDS011;1536;51.098;6.414;2023-07-24T08:24:44;3.30;;;2.70;;
3052;SDS011;1536;51.098;6.414;2023-07-24T08:27:11;4.90;;;3.43;;
3052;SDS011;1536;51.098;6.414;2023-07-24T08:29:38;3.70;;;3.20;;
3052;SDS011;1536;51.098;6.414;2023-07-24T08:32:05;3.37;;;2.90;;
3052;SDS011;1536;51.098;6.414;2023-07-24T08:34:33;4.30;;;3.20;;
3052;SDS011;1536;51.098;6.414;2023-07-24T08:37:01;4.20;;;3.10;;
3052;SDS011;1536;51.098;6.414;2023-07-24T08:39:28;4.60;;;3.27;;
3052;SDS011;1536;51.098;6.414;2023-07-24T08:41:54;4.47;;;3.33;;
3052;SDS011;1536;51.098;6.414;2023-07-24T08:44:24;3.70;;;3.30;;
3052;SDS011;1536;51.098;6.414;2023-07-24T08:46:56;4.67;;;3.10;;
3052;SDS011;1536;51.098;6.414;2023-07-24T08:49:23;5.97;;;3.63;;
3052;SDS011;1536;51.098;6.414;2023-07-24T08:51:51;3.67;;;2.70;;
3052;SDS011;1536;51.098;6.414;2023-07-24T08:54:19;7.70;;;4.30;;
3052;SDS011;1536;51.098;6.414;2023-07-24T08:56:47;5.20;;;3.60;;
3052;SDS011;1536;51.098;6.414;2023-07-24T08:59:15;8.10;;;3.40;;
3052;SDS011;1536;51.098;6.414;2023-07-24T09:01:42;3.93;;;2.80;;
3052;SDS011;1536;51.098;6.414;2023-07-24T09:04:09;6.73;;;3.50;;
3052;SDS011;1536;51.098;6.414;2023-07-24T09:06:36;4.60;;;3.63;;
3052;SDS011;1536;51.098;6.414;2023-07-24T09:09:11;4.40;;;3.13;;
3052;SDS011;1536;51.098;6.414;2023-07-24T09:11:48;5.03;;;3.60;;
3052;SDS011;1536;51.098;6.414;2023-07-24T09:14:22;4.27;;;3.43;;
3052;SDS011;1536;51.098;6.414;2023-07-24T09:16:50;4.57;;;3.70;;
3052;SDS011;1536;51.098;6.414;2023-07-24T09:19:29;4.80;;;3.50;;
3052;SDS011;1536;51.098;6.414;2023-07-24T09:21:56;5.33;;;3.90;;
3052;SDS011;1536;51.098;6.414;2023-07-24T09:24:33;3.50;;;3.20;;
3052;SDS011;1536;51.098;6.414;2023-07-24T09:27:04;8.57;;;3.63;;
3052;SDS011;1536;51.098;6.414;2023-07-24T09:29:32;3.50;;;3.00;;
3052;SDS011;1536;51.098;6.414;2023-07-24T09:31:59;3.40;;;3.07;;
3052;SDS011;1536;51.098;6.414;2023-07-24T09:34:26;4.00;;;3.30;;
3052;SDS011;1536;51.098;6.414;2023-07-24T09:36:54;3.97;;;2.50;;
3052;SDS011;1536;51.098;6.414;2023-07-24T09:39:24;3.43;;;3.10;;
3052;SDS011;1536;51.098;6.414;2023-07-24T09:41:51;4.13;;;2.50;;
3052;SDS011;1536;51.098;6.414;2023-07-24T09:44:19;5.80;;;2.90;;
3052;SDS011;1536;51.098;6.414;2023-07-24T09:46:46;4.30;;;3.90;;
3052;SDS011;1536;51.098;6.414;2023-07-24T09:49:13;4.30;;;3.43;;
3052;SDS011;1536;51.098;6.414;2023-07-24T09:51:40;6.90;;;2.90;;
3052;SDS011;1536;51.098;6.414;2023-07-24T09:54:15;3.57;;;2.30;;
3052;SDS011;1536;51.098;6.414;2023-07-24T09:56:47;2.90;;;2.60;;
3052;SDS011;1536;51.098;6.414;2023-07-24T09:59:15;4.53;;;2.80;;
3052;SDS011;1536;51.098;6.414;2023-07-24T10:01:44;3.43;;;3.13;;
3052;SDS011;1536;51.098;6.414;2023-07-24T10:04:11;5.57;;;2.97;;
3052;SDS011;1536;51.098;6.414;2023-07-24T10:06:39;6.33;;;2.50;;
3052;SDS011;1536;51.098;6.414;2023-07-24T10:09:07;3.50;;;2.43;;
3052;SDS011;1536;51.098;6.414;2023-07-24T10:11:34;2.70;;;2.50;;
3052;SDS011;1536;51.098;6.414;2023-07-24T10:14:01;3.00;;;2.70;;
3052;SDS011;1536;51.098;6.414;2023-07-24T10:16:28;2.80;;;2.60;;
3052;SDS011;1536;51.098;6.414;2023-07-24T10:18:58;4.07;;;2.47;;
3052;SDS011;1536;51.098;6.414;2023-07-24T10:21:26;4.47;;;2.83;;
3052;SDS011;1536;51.098;6.414;2023-07-24T10:23:53;2.70;;;2.43;;
3052;SDS011;1536;51.098;6.414;2023-07-24T10:26:24;2.90;;;2.70;;
3052;SDS011;1536;51.098;6.414;2023-07-24T10:28:51;3.13;;;2.67;;
3052;SDS011;1536;51.098;6.414;2023-07-24T10:31:21;3.80;;;2.27;;
3052;SDS011;1536;51.098;6.414;2023-07-24T10:33:48;2.63;;;2.33;;
3052;SDS011;1536;51.098;6.414;2023-07-24T10:36:18;4.03;;;2.53;;
3052;SDS011;1536;51.098;6.414;2023-07-24T10:38:51;4.50;;;2.67;;
3052;SDS011;1536;51.098;6.414;2023-07-24T10:41:19;3.23;;;2.30;;
3052;SDS011;1536;51.098;6.414;2023-07-24T10:43:46;2.97;;;2.30;;
3052;SDS011;1536;51.098;6.414;2023-07-24T10:46:14;3.83;;;2.33;;
3052;SDS011;1536;51.098;6.414;2023-07-24T10:48:42;3.77;;;2.53;;
3052;SDS011;1536;51.098;6.414;2023-07-24T10:51:10;3.00;;;2.23;;
3052;SDS011;1536;51.098;6.414;2023-07-24T10:53:41;2.50;;;2.10;;
3052;SDS011;1536;51.098;6.414;2023-07-24T10:56:10;3.20;;;2.73;;
3052;SDS011;1536;51.098;6.414;2023-07-24T10:58:37;3.47;;;2.90;;
3052;SDS011;1536;51.098;6.414;2023-07-24T11:01:04;3.43;;;2.50;;
3052;SDS011;1536;51.098;6.414;2023-07-24T11:03:35;2.93;;;2.50;;
3052;SDS011;1536;51.098;6.414;2023-07-24T11:06:02;4.13;;;2.70;;
3052;SDS011;1536;51.098;6.414;2023-07-24T11:08:30;3.97;;;2.70;;
3052;SDS011;1536;51.098;6.414;2023-07-24T11:10:59;3.07;;;2.23;;
3052;SDS011;1536;51.098;6.414;2023-07-24T11:13:28;3.63;;;2.70;;
3052;SDS011;1536;51.098;6.414;2023-07-24T11:16:03;8.97;;;3.60;;
3052;SDS011;1536;51.098;6.414;2023-07-24T11:18:33;20.00;;;6.43;;
3052;SDS011;1536;51.098;6.414;2023-07-24T11:21:11;8.70;;;3.80;;
3052;SDS011;1536;51.098;6.414;2023-07-24T11:23:44;4.60;;;2.40;;
3052;SDS011;1536;51.098;6.414;2023-07-24T11:26:13;4.20;;;2.43;;
3052;SDS011;1536;51.098;6.414;2023-07-24T11:28:41;4.83;;;2.87;;
3052;SDS011;1536;51.098;6.414;2023-07-24T11:31:08;4.13;;;2.50;;
3052;SDS011;1536;51.098;6.414;2023-07-24T11:33:34;3.17;;;2.60;;
3052;SDS011;1536;51.098;6.414;2023-07-24T11:36:02;5.40;;;2.77;;
3052;SDS011;1536;51.098;6.414;2023-07-24T11:38:29;3.40;;;2.43;;
3052;SDS011;1536;51.098;6.414;2023-07-24T11:40:56;4.00;;;2.43;;
3052;SDS011;1536;51.098;6.414;2023-07-24T11:43:24;2.63;;;2.43;;
3052;SDS011;1536;51.098;6.414;2023-07-24T11:45:52;3.70;;;2.33;;
3052;SDS011;1536;51.098;6.414;2023-07-24T11:48:20;2.30;;;2.10;;
3052;SDS011;1536;51.098;6.414;2023-07-24T11:50:48;5.10;;;2.00;;
3052;SDS011;1536;51.098;6.414;2023-07-24T11:53:20;2.80;;;2.60;;
3052;SDS011;1536;51.098;6.414;2023-07-24T11:55:48;3.00;;;2.50;;
3052;SDS011;1536;51.098;6.414;2023-07-24T11:58:15;2.87;;;2.00;;
3052;SDS011;1536;51.098;6.414;2023-07-24T12:00:44;4.70;;;2.37;;
3052;SDS011;1536;51.098;6.414;2023-07-24T12:03:11;3.57;;;1.83;;
3052;SDS011;1536;51.098;6.414;2023-07-24T12:05:38;4.50;;;2.50;;
3052;SDS011;1536;51.098;6.414;2023-07-24T12:08:07;4.67;;;2.70;;
3052;SDS011;1536;51.098;6.414;2023-07-24T12:10:35;2.43;;;2.17;;
3052;SDS011;1536;51.098;6.414;2023-07-24T12:13:04;3.13;;;2.30;;
3052;SDS011;1536;51.098;6.414;2023-07-24T12:15:31;3.23;;;2.00;;
3052;SDS011;1536;51.098;6.414;2023-07-24T12:18:01;2.70;;;2.13;;
3052;SDS011;1536;51.098;6.414;2023-07-24T12:20:29;2.10;;;1.90;;
3052;SDS011;1536;51.098;6.414;2023-07-24T12:22:56;1.83;;;1.70;;
3052;SDS011;1536;51.098;6.414;2023-07-24T12:25:23;2.23;;;2.03;;
3052;SDS011;1536;51.098;6.414;2023-07-24T12:27:50;1.40;;;1.17;;
3052;SDS011;1536;51.098;6.414;2023-07-24T12:30:17;1.40;;;1.20;;
3052;SDS011;1536;51.098;6.414;2023-07-24T12:32:45;1.40;;;1.20;;
3052;SDS011;1536;51.098;6.414;2023-07-24T12:35:13;1.93;;;1.50;;
3052;SDS011;1536;51.098;6.414;2023-07-24T12:37:41;2.33;;;1.30;;
3052;SDS011;1536;51.098;6.414;2023-07-24T12:40:10;2.00;;;1.50;;
3052;SDS011;1536;51.098;6.414;2023-07-24T12:42:38;1.77;;;1.10;;
3052;SDS011;1536;51.098;6.414;2023-07-24T12:45:05;2.90;;;1.50;;
3052;SDS011;1536;51.098;6.414;2023-07-24T12:47:33;2.50;;;1.40;;
3052;SDS011;1536;51.098;6.414;2023-07-24T12:50:00;1.97;;;1.77;;
3052;SDS011;1536;51.098;6.414;2023-07-24T12:52:30;2.20;;;1.70;;
3052;SDS011;1536;51.098;6.414;2023-07-24T12:54:57;1.40;;;1.00;;
3052;SDS011;1536;51.098;6.414;2023-07-24T12:57:24;1.50;;;1.07;;
3052;SDS011;1536;51.098;6.414;2023-07-24T12:59:52;1.90;;;1.70;;
3052;SDS011;1536;51.098;6.414;2023-07-24T13:02:19;1.63;;;1.53;;
3052;SDS011;1536;51.098;6.414;2023-07-24T13:04:46;1.60;;;1.40;;
3052;SDS011;1536;51.098;6.414;2023-07-24T13:07:12;1.93;;;1.47;;
3052;SDS011;1536;51.098;6.414;2023-07-24T13:09:41;1.50;;;1.40;;
3052;SDS011;1536;51.098;6.414;2023-07-24T13:12:08;2.07;;;1.17;;
3052;SDS011;1536;51.098;6.414;2023-07-24T13:14:35;3.00;;;2.00;;
3052;SDS011;1536;51.098;6.414;2023-07-24T13:17:02;1.50;;;1.30;;
3052;SDS011;1536;51.098;6.414;2023-07-24T13:19:29;2.00;;;1.37;;
3052;SDS011;1536;51.098;6.414;2023-07-24T13:21:56;2.30;;;1.63;;
3052;SDS011;1536;51.098;6.414;2023-07-24T13:24:23;1.70;;;1.60;;
3052;SDS011;1536;51.098;6.414;2023-07-24T13:26:52;1.97;;;1.40;;
3052;SDS011;1536;51.098;6.414;2023-07-24T13:29:18;2.70;;;1.60;;
3052;SDS011;1536;51.098;6.414;2023-07-24T13:31:45;1.93;;;1.23;;
3052;SDS011;1536;51.098;6.414;2023-07-24T13:34:12;1.50;;;1.27;;
3052;SDS011;1536;51.098;6.414;2023-07-24T13:36:38;1.87;;;1.50;;
3052;SDS011;1536;51.098;6.414;2023-07-24T13:39:05;1.90;;;1.40;;
3052;SDS011;1536;51.098;6.414;2023-07-24T13:41:32;1.43;;;1.30;;
3052;SDS011;1536;51.098;6.414;2023-07-24T13:44:02;1.80;;;1.50;;
3052;SDS011;1536;51.098;6.414;2023-07-24T13:46:29;4.40;;;1.33;;
3052;SDS011;1536;51.098;6.414;2023-07-24T13:48:55;1.50;;;1.33;;
3052;SDS011;1536;51.098;6.414;2023-07-24T13:51:23;1.90;;;1.50;;
3052;SDS011;1536;51.098;6.414;2023-07-24T13:53:50;2.00;;;1.50;;
3052;SDS011;1536;51.098;6.414;2023-07-24T13:56:19;1.90;;;1.23;;
3052;SDS011;1536;51.098;6.414;2023-07-24T13:58:47;2.10;;;1.77;;
3052;SDS011;1536;51.098;6.414;2023-07-24T14:01:15;1.93;;;1.50;;
3052;SDS011;1536;51.098;6.414;2023-07-24T14:03:42;1.57;;;1.40;;
3052;SDS011;1536;51.098;6.414;2023-07-24T14:06:09;1.80;;;1.30;;
3052;SDS011;1536;51.098;6.414;2023-07-24T14:08:35;2.03;;;1.50;;
3052;SDS011;1536;51.098;6.414;2023-07-24T14:11:02;3.80;;;1.70;;
3052;SDS011;1536;51.098;6.414;2023-07-24T14:13:29;2.60;;;1.97;;
3052;SDS011;1536;51.098;6.414;2023-07-24T14:15:56;2.40;;;2.00;;
3052;SDS011;1536;51.098;6.414;2023-07-24T14:18:24;2.07;;;1.87;;
3052;SDS011;1536;51.098;6.414;2023-07-24T14:20:51;5.67;;;2.50;;
3052;SDS011;1536;51.098;6.414;2023-07-24T14:23:20;5.33;;;2.50;;
3052;SDS011;1536;51.098;6.414;2023-07-24T14:25:46;3.73;;;2.40;;
3052;SDS011;1536;51.098;6.414;2023-07-24T14:28:13;3.70;;;2.07;;
3052;SDS011;1536;51.098;6.414;2023-07-24T14:30:40;3.27;;;2.40;;
3052;SDS011;1536;51.098;6.414;2023-07-24T14:33:07;3.13;;;2.33;;
3052;SDS011;1536;51.098;6.414;2023-07-24T14:35:35;3.50;;;2.10;;
3052;SDS011;1536;51.098;6.414;2023-07-24T14:38:02;2.40;;;2.20;;
3052;SDS011;1536;51.098;6.414;2023-07-24T14:40:29;5.40;;;2.50;;
3052;SDS011;1536;51.098;6.414;2023-07-24T14:42:58;3.53;;;2.60;;
3052;SDS011;1536;51.098;6.414;2023-07-24T14:45:28;3.80;;;2.07;;
3052;SDS011;1536;51.098;6.414;2023-07-24T14:47:59;3.40;;;2.13;;
3052;SDS011;1536;51.098;6.414;2023-07-24T14:50:26;5.03;;;2.47;;
3052;SDS011;1536;51.098;6.414;2023-07-24T14:52:54;3.30;;;2.40;;
3052;SDS011;1536;51.098;6.414;2023-07-24T14:55:22;3.97;;;2.47;;
3052;SDS011;1536;51.098;6.414;2023-07-24T14:57:49;3.20;;;2.77;;
3052;SDS011;1536;51.098;6.414;2023-07-24T15:00:18;3.30;;;2.60;;
3052;SDS011;1536;51.098;6.414;2023-07-24T15:02:49;3.90;;;2.97;;
3052;SDS011;1536;51.098;6.414;2023-07-24T15:05:19;3.10;;;2.50;;
3052;SDS011;1536;51.098;6.414;2023-07-24T15:07:46;2.57;;;2.10;;
3052;SDS011;1536;51.098;6.414;2023-07-24T15:10:15;3.13;;;2.00;;
3052;SDS011;1536;51.098;6.414;2023-07-24T15:12:45;3.80;;;2.80;;
3052;SDS011;1536;51.098;6.414;2023-07-24T15:15:14;3.93;;;2.67;;
3052;SDS011;1536;51.098;6.414;2023-07-24T15:17:41;2.67;;;2.20;;